Terminal Aerodrome Forecast
Issued by NWS South Bend, IN

Home | Current Version | Previous Version | Graphics & Text | Print | Product List | Glossary On
Versions: 1 2 3 4 5 6 7 8 9 10 11 12 13 14
000
FTUS43 KIWX 221300 AAA
TAFSBN
TAF AMD
KSBN 221309Z 2213/2312 30012G20KT 4SM -SHSN SCT025 BKN040
      TEMPO 2213/2214 2SM -SHSN BKN025
     FM221500 29019G30KT P6SM BKN050
     FM230000 29010KT P6SM SCT060=

USA.gov is the U.S. government's official web portal to all federal, state and local government web resources and services.